sensor_id;sensor_type;location;lat;lon;timestamp;P1;durP1;ratioP1;P2;durP2;ratioP2
6426;SDS011;3246;42.664;23.308;2023-07-13T17:30:04;10.40;;;5.60;;
6426;SDS011;3246;42.664;23.308;2023-07-13T17:32:32;7.03;;;4.65;;
6426;SDS011;3246;42.664;23.308;2023-07-13T17:35:16;7.00;;;4.72;;
6426;SDS011;3246;42.664;23.308;2023-07-13T17:37:48;8.02;;;5.30;;
6426;SDS011;3246;42.664;23.308;2023-07-13T17:40:15;9.30;;;5.57;;
6426;SDS011;3246;42.664;23.308;2023-07-13T17:42:43;10.68;;;5.47;;
6426;SDS011;3246;42.664;23.308;2023-07-13T17:45:12;6.63;;;4.55;;
6426;SDS011;3246;42.664;23.308;2023-07-13T17:47:45;11.25;;;5.95;;
6426;SDS011;3246;42.664;23.308;2023-07-13T17:50:15;7.65;;;5.32;;
6426;SDS011;3246;42.664;23.308;2023-07-13T17:52:47;6.47;;;5.22;;
6426;SDS011;3246;42.664;23.308;2023-07-13T17:55:14;13.68;;;5.60;;
6426;SDS011;3246;42.664;23.308;2023-07-13T17:57:43;7.43;;;6.57;;
6426;SDS011;3246;42.664;23.308;2023-07-13T18:00:16;11.80;;;6.32;;
6426;SDS011;3246;42.664;23.308;2023-07-13T18:02:58;9.80;;;5.13;;
6426;SDS011;3246;42.664;23.308;2023-07-13T18:05:28;9.68;;;5.07;;
6426;SDS011;3246;42.664;23.308;2023-07-13T18:07:56;7.05;;;5.10;;
6426;SDS011;3246;42.664;23.308;2023-07-13T18:10:22;8.70;;;4.68;;
6426;SDS011;3246;42.664;23.308;2023-07-13T18:12:50;10.25;;;5.80;;
6426;SDS011;3246;42.664;23.308;2023-07-13T18:15:20;14.18;;;6.35;;
6426;SDS011;3246;42.664;23.308;2023-07-13T18:17:49;6.72;;;5.53;;
6426;SDS011;3246;42.664;23.308;2023-07-13T18:20:17;10.40;;;5.70;;
6426;SDS011;3246;42.664;23.308;2023-07-13T18:22:46;8.32;;;5.78;;
6426;SDS011;3246;42.664;23.308;2023-07-13T18:25:14;9.75;;;5.63;;
6426;SDS011;3246;42.664;23.308;2023-07-13T18:27:42;6.05;;;5.13;;
6426;SDS011;3246;42.664;23.308;2023-07-13T18:30:10;12.68;;;6.35;;
6426;SDS011;3246;42.664;23.308;2023-07-13T18:32:40;11.07;;;7.13;;
6426;SDS011;3246;42.664;23.308;2023-07-13T18:35:14;8.60;;;5.72;;
6426;SDS011;3246;42.664;23.308;2023-07-13T18:37:42;8.43;;;5.50;;
6426;SDS011;3246;42.664;23.308;2023-07-13T18:40:13;10.55;;;6.65;;
6426;SDS011;3246;42.664;23.308;2023-07-13T18:42:42;10.70;;;6.20;;
6426;SDS011;3246;42.664;23.308;2023-07-13T18:45:10;11.95;;;6.40;;
6426;SDS011;3246;42.664;23.308;2023-07-13T18:47:40;10.23;;;6.15;;
6426;SDS011;3246;42.664;23.308;2023-07-13T18:50:12;7.93;;;5.95;;
6426;SDS011;3246;42.664;23.308;2023-07-13T18:52:40;12.40;;;5.90;;
6426;SDS011;3246;42.664;23.308;2023-07-13T18:55:14;9.82;;;6.45;;
6426;SDS011;3246;42.664;23.308;2023-07-13T18:57:42;11.70;;;5.78;;
6426;SDS011;3246;42.664;23.308;2023-07-13T19:00:11;12.25;;;5.88;;
6426;SDS011;3246;42.664;23.308;2023-07-13T19:02:40;13.27;;;7.75;;
6426;SDS011;3246;42.664;23.308;2023-07-13T19:05:14;7.93;;;7.13;;
6426;SDS011;3246;42.664;23.308;2023-07-13T19:07:43;14.52;;;6.22;;
6426;SDS011;3246;42.664;23.308;2023-07-13T19:10:14;9.93;;;5.90;;
6426;SDS011;3246;42.664;23.308;2023-07-13T19:12:45;10.25;;;6.20;;
6426;SDS011;3246;42.664;23.308;2023-07-13T19:15:17;12.38;;;6.60;;
6426;SDS011;3246;42.664;23.308;2023-07-13T19:17:48;14.88;;;6.00;;
6426;SDS011;3246;42.664;23.308;2023-07-13T19:20:16;9.93;;;5.88;;
6426;SDS011;3246;42.664;23.308;2023-07-13T19:22:48;15.00;;;6.45;;
6426;SDS011;3246;42.664;23.308;2023-07-13T19:25:17;5.45;;;4.93;;
6426;SDS011;3246;42.664;23.308;2023-07-13T19:27:45;12.60;;;6.97;;
6426;SDS011;3246;42.664;23.308;2023-07-13T19:30:13;9.80;;;7.35;;
6426;SDS011;3246;42.664;23.308;2023-07-13T19:32:40;10.82;;;6.70;;
6426;SDS011;3246;42.664;23.308;2023-07-13T19:35:10;10.52;;;5.85;;
6426;SDS011;3246;42.664;23.308;2023-07-13T19:37:37;10.80;;;6.53;;
6426;SDS011;3246;42.664;23.308;2023-07-13T19:40:04;16.48;;;7.13;;
6426;SDS011;3246;42.664;23.308;2023-07-13T19:42:40;18.48;;;7.00;;
6426;SDS011;3246;42.664;23.308;2023-07-13T19:45:07;18.25;;;7.75;;
6426;SDS011;3246;42.664;23.308;2023-07-13T19:47:42;13.30;;;6.03;;
6426;SDS011;3246;42.664;23.308;2023-07-13T19:50:11;14.68;;;6.32;;
6426;SDS011;3246;42.664;23.308;2023-07-13T19:52:41;13.25;;;6.82;;
6426;SDS011;3246;42.664;23.308;2023-07-13T19:55:11;14.02;;;7.05;;
6426;SDS011;3246;42.664;23.308;2023-07-13T19:57:41;11.52;;;6.65;;
6426;SDS011;3246;42.664;23.308;2023-07-13T20:00:14;20.55;;;16.83;;
6426;SDS011;3246;42.664;23.308;2023-07-13T20:02:42;21.50;;;11.02;;
6426;SDS011;3246;42.664;23.308;2023-07-13T20:05:09;8.77;;;7.22;;
6426;SDS011;3246;42.664;23.308;2023-07-13T20:07:38;9.88;;;7.43;;
6426;SDS011;3246;42.664;23.308;2023-07-13T20:10:06;8.20;;;6.93;;
6426;SDS011;3246;42.664;23.308;2023-07-13T20:12:42;11.40;;;5.65;;
6426;SDS011;3246;42.664;23.308;2023-07-13T20:15:12;6.93;;;4.93;;
6426;SDS011;3246;42.664;23.308;2023-07-13T20:17:40;7.72;;;5.95;;
6426;SDS011;3246;42.664;23.308;2023-07-13T20:20:21;11.55;;;6.10;;
6426;SDS011;3246;42.664;23.308;2023-07-13T20:22:53;9.50;;;5.55;;
6426;SDS011;3246;42.664;23.308;2023-07-13T20:25:22;10.82;;;5.90;;
6426;SDS011;3246;42.664;23.308;2023-07-13T20:27:49;10.05;;;7.30;;
6426;SDS011;3246;42.664;23.308;2023-07-13T20:30:18;8.90;;;6.60;;
6426;SDS011;3246;42.664;23.308;2023-07-13T20:32:45;15.45;;;6.45;;
6426;SDS011;3246;42.664;23.308;2023-07-13T20:35:27;10.18;;;6.28;;
6426;SDS011;3246;42.664;23.308;2023-07-13T20:37:57;10.20;;;5.68;;
6426;SDS011;3246;42.664;23.308;2023-07-13T20:40:26;11.13;;;6.22;;
6426;SDS011;3246;42.664;23.308;2023-07-13T20:42:54;9.80;;;6.70;;
6426;SDS011;3246;42.664;23.308;2023-07-13T20:45:22;14.40;;;7.03;;
6426;SDS011;3246;42.664;23.308;2023-07-13T20:47:51;11.05;;;7.05;;
6426;SDS011;3246;42.664;23.308;2023-07-13T20:50:22;11.20;;;7.70;;
6426;SDS011;3246;42.664;23.308;2023-07-13T20:52:53;12.05;;;7.60;;
6426;SDS011;3246;42.664;23.308;2023-07-13T20:55:22;13.48;;;9.65;;
6426;SDS011;3246;42.664;23.308;2023-07-13T20:57:50;15.13;;;9.30;;
6426;SDS011;3246;42.664;23.308;2023-07-13T21:00:18;13.45;;;8.52;;
6426;SDS011;3246;42.664;23.308;2023-07-13T21:02:47;15.98;;;9.50;;
6426;SDS011;3246;42.664;23.308;2023-07-13T21:05:18;17.67;;;7.97;;
6426;SDS011;3246;42.664;23.308;2023-07-13T21:07:46;12.73;;;8.23;;
6426;SDS011;3246;42.664;23.308;2023-07-13T21:10:16;23.20;;;8.90;;
6426;SDS011;3246;42.664;23.308;2023-07-13T21:12:45;16.35;;;8.35;;
6426;SDS011;3246;42.664;23.308;2023-07-13T21:15:13;14.32;;;8.48;;
6426;SDS011;3246;42.664;23.308;2023-07-13T21:17:40;10.13;;;7.53;;
6426;SDS011;3246;42.664;23.308;2023-07-13T21:20:17;14.50;;;8.55;;
6426;SDS011;3246;42.664;23.308;2023-07-13T21:22:46;19.17;;;8.48;;
6426;SDS011;3246;42.664;23.308;2023-07-13T21:25:16;13.40;;;8.50;;
6426;SDS011;3246;42.664;23.308;2023-07-13T21:27:44;15.38;;;8.55;;
6426;SDS011;3246;42.664;23.308;2023-07-13T21:30:14;12.15;;;7.38;;
6426;SDS011;3246;42.664;23.308;2023-07-13T21:32:42;10.48;;;7.38;;
6426;SDS011;3246;42.664;23.308;2023-07-13T21:35:17;13.23;;;8.13;;
6426;SDS011;3246;42.664;23.308;2023-07-13T21:37:47;11.30;;;7.97;;
6426;SDS011;3246;42.664;23.308;2023-07-13T21:40:16;9.48;;;7.03;;
6426;SDS011;3246;42.664;23.308;2023-07-13T21:42:45;11.32;;;8.13;;
6426;SDS011;3246;42.664;23.308;2023-07-13T21:45:18;11.07;;;7.95;;
6426;SDS011;3246;42.664;23.308;2023-07-13T21:47:47;15.05;;;7.95;;
6426;SDS011;3246;42.664;23.308;2023-07-13T21:50:14;10.40;;;7.93;;
6426;SDS011;3246;42.664;23.308;2023-07-13T21:52:41;19.70;;;8.85;;
6426;SDS011;3246;42.664;23.308;2023-07-13T21:55:12;13.70;;;8.35;;
6426;SDS011;3246;42.664;23.308;2023-07-13T21:57:42;12.38;;;7.72;;
6426;SDS011;3246;42.664;23.308;2023-07-13T22:00:17;11.25;;;8.43;;
6426;SDS011;3246;42.664;23.308;2023-07-13T22:02:45;14.02;;;7.82;;
6426;SDS011;3246;42.664;23.308;2023-07-13T22:05:13;10.13;;;7.82;;
6426;SDS011;3246;42.664;23.308;2023-07-13T22:07:41;15.45;;;8.43;;
6426;SDS011;3246;42.664;23.308;2023-07-13T22:10:12;14.40;;;7.88;;
6426;SDS011;3246;42.664;23.308;2023-07-13T22:12:40;12.23;;;8.15;;
6426;SDS011;3246;42.664;23.308;2023-07-13T22:15:08;15.43;;;8.40;;
6426;SDS011;3246;42.664;23.308;2023-07-13T22:17:36;10.13;;;7.28;;
6426;SDS011;3246;42.664;23.308;2023-07-13T22:20:03;18.77;;;8.02;;
6426;SDS011;3246;42.664;23.308;2023-07-13T22:22:34;8.30;;;7.47;;
6426;SDS011;3246;42.664;23.308;2023-07-13T22:25:06;11.30;;;7.93;;
6426;SDS011;3246;42.664;23.308;2023-07-13T22:27:49;13.23;;;8.65;;
6426;SDS011;3246;42.664;23.308;2023-07-13T22:30:21;9.70;;;8.00;;
6426;SDS011;3246;42.664;23.308;2023-07-13T22:32:48;9.18;;;7.38;;
6426;SDS011;3246;42.664;23.308;2023-07-13T22:35:23;15.93;;;7.07;;
6426;SDS011;3246;42.664;23.308;2023-07-13T22:37:54;10.70;;;7.00;;
6426;SDS011;3246;42.664;23.308;2023-07-13T22:40:25;8.82;;;7.35;;
6426;SDS011;3246;42.664;23.308;2023-07-13T22:42:54;11.85;;;7.65;;
6426;SDS011;3246;42.664;23.308;2023-07-13T22:45:23;10.18;;;8.00;;
6426;SDS011;3246;42.664;23.308;2023-07-13T22:47:51;11.80;;;8.43;;
6426;SDS011;3246;42.664;23.308;2023-07-13T22:50:20;10.52;;;8.57;;
6426;SDS011;3246;42.664;23.308;2023-07-13T22:52:48;13.98;;;7.90;;
6426;SDS011;3246;42.664;23.308;2023-07-13T22:55:15;14.90;;;8.55;;
6426;SDS011;3246;42.664;23.308;2023-07-13T22:57:47;8.55;;;7.55;;
6426;SDS011;3246;42.664;23.308;2023-07-13T23:00:20;16.40;;;8.43;;
6426;SDS011;3246;42.664;23.308;2023-07-13T23:02:50;14.93;;;9.13;;
6426;SDS011;3246;42.664;23.308;2023-07-13T23:05:19;9.05;;;7.95;;
6426;SDS011;3246;42.664;23.308;2023-07-13T23:07:48;11.10;;;8.80;;
6426;SDS011;3246;42.664;23.308;2023-07-13T23:10:16;11.02;;;7.70;;
6426;SDS011;3246;42.664;23.308;2023-07-13T23:12:46;11.45;;;7.93;;
6426;SDS011;3246;42.664;23.308;2023-07-13T23:15:17;14.70;;;9.23;;
6426;SDS011;3246;42.664;23.308;2023-07-13T23:17:50;23.70;;;8.80;;
6426;SDS011;3246;42.664;23.308;2023-07-13T23:20:21;12.52;;;8.85;;
6426;SDS011;3246;42.664;23.308;2023-07-13T23:22:50;12.07;;;9.38;;
6426;SDS011;3246;42.664;23.308;2023-07-13T23:25:21;13.02;;;8.02;;
6426;SDS011;3246;42.664;23.308;2023-07-13T23:27:49;12.30;;;8.77;;
6426;SDS011;3246;42.664;23.308;2023-07-13T23:30:18;13.18;;;8.45;;
6426;SDS011;3246;42.664;23.308;2023-07-13T23:32:47;9.70;;;8.45;;
6426;SDS011;3246;42.664;23.308;2023-07-13T23:35:17;10.98;;;8.05;;
6426;SDS011;3246;42.664;23.308;2023-07-13T23:37:45;15.55;;;8.98;;
6426;SDS011;3246;42.664;23.308;2023-07-13T23:40:14;9.05;;;7.63;;
6426;SDS011;3246;42.664;23.308;2023-07-13T23:42:42;13.55;;;9.00;;
6426;SDS011;3246;42.664;23.308;2023-07-13T23:45:12;11.38;;;7.47;;
6426;SDS011;3246;42.664;23.308;2023-07-13T23:47:40;8.30;;;7.50;;
6426;SDS011;3246;42.664;23.308;2023-07-13T23:50:10;14.75;;;8.05;;
6426;SDS011;3246;42.664;23.308;2023-07-13T23:52:40;13.00;;;7.82;;
6426;SDS011;3246;42.664;23.308;2023-07-13T23:55:11;11.30;;;7.60;;
6426;SDS011;3246;42.664;23.308;2023-07-13T23:57:40;11.30;;;8.15;;
